createdAt,value
2018-10-09T00:00:50.775Z,32.17
2018-10-09T00:03:18.236Z,34.73
2018-10-09T00:05:45.766Z,31.63
2018-10-09T00:08:13.289Z,29.90
2018-10-09T00:10:40.822Z,31.57
2018-10-09T00:13:08.353Z,28.30
2018-10-09T00:15:35.873Z,30.17
2018-10-09T00:18:03.445Z,28.90
2018-10-09T00:20:30.987Z,29.80
2018-10-09T00:22:59.614Z,31.47
2018-10-09T00:25:27.163Z,31.20
2018-10-09T00:27:55.379Z,33.80
2018-10-09T00:30:23.430Z,32.97
2018-10-09T00:32:51.018Z,31.37
2018-10-09T00:35:18.572Z,33.00
2018-10-09T00:37:46.248Z,32.43
2018-10-09T00:40:14.009Z,32.53
2018-10-09T00:42:41.583Z,32.80
2018-10-09T00:45:09.161Z,33.03
2018-10-09T00:47:36.757Z,34.50
2018-10-09T00:50:04.432Z,35.63
2018-10-09T00:52:32.001Z,35.70
2018-10-09T00:54:59.665Z,33.20
2018-10-09T00:57:27.255Z,34.67
2018-10-09T00:59:54.807Z,33.43
2018-10-09T01:02:22.308Z,33.83
2018-10-09T01:04:49.860Z,36.13
2018-10-09T01:07:17.426Z,34.90
2018-10-09T01:09:44.946Z,36.87
2018-10-09T01:12:12.509Z,36.87
2018-10-09T01:14:40.053Z,40.40
2018-10-09T01:17:07.579Z,38.27
2018-10-09T01:19:35.150Z,38.77
2018-10-09T01:22:02.714Z,37.60
2018-10-09T01:24:30.242Z,38.07
2018-10-09T01:26:57.790Z,35.93
2018-10-09T01:29:25.325Z,38.70
2018-10-09T01:31:53.014Z,39.77
2018-10-09T01:34:20.576Z,39.53
2018-10-09T01:36:48.128Z,37.30
2018-10-09T01:39:15.661Z,39.10
2018-10-09T01:41:43.178Z,41.50
2018-10-09T01:44:10.704Z,41.20
2018-10-09T01:46:38.283Z,38.20
2018-10-09T01:49:05.848Z,36.83
2018-10-09T01:51:33.429Z,39.47
2018-10-09T01:54:00.924Z,38.47
2018-10-09T01:56:28.493Z,37.43
2018-10-09T01:58:56.034Z,38.63
2018-10-09T02:01:23.564Z,40.60
2018-10-09T02:03:51.100Z,38.70
2018-10-09T02:06:18.600Z,39.40
2018-10-09T02:08:46.168Z,38.50
2018-10-09T02:11:13.668Z,38.40
2018-10-09T02:13:41.218Z,37.97
2018-10-09T02:16:08.804Z,42.37
2018-10-09T02:18:36.362Z,39.60
2018-10-09T02:21:03.872Z,40.93
2018-10-09T02:23:31.416Z,40.73
2018-10-09T02:25:59.016Z,37.27
2018-10-09T02:28:26.523Z,37.97
2018-10-09T02:30:54.070Z,40.73
2018-10-09T02:33:21.833Z,40.30
2018-10-09T02:35:49.349Z,39.40
2018-10-09T02:38:16.878Z,41.10
2018-10-09T02:40:44.384Z,40.43
2018-10-09T02:43:11.914Z,38.83
2018-10-09T02:45:39.446Z,39.13
2018-10-09T02:48:07.039Z,40.80
2018-10-09T02:50:34.594Z,42.60
2018-10-09T02:53:02.113Z,39.17
2018-10-09T02:55:29.631Z,39.60
2018-10-09T02:57:57.167Z,40.00
2018-10-09T03:00:24.695Z,40.23
2018-10-09T03:02:52.258Z,39.33
2018-10-09T03:05:19.820Z,39.93
2018-10-09T03:07:47.341Z,36.50
2018-10-09T03:10:14.892Z,42.27
2018-10-09T03:12:42.401Z,39.33
2018-10-09T03:15:09.929Z,39.97
2018-10-09T03:17:37.471Z,39.70
2018-10-09T03:20:05.065Z,40.10
2018-10-09T03:22:32.601Z,41.27
2018-10-09T03:25:00.118Z,39.63
2018-10-09T03:27:27.662Z,40.03
2018-10-09T03:29:55.215Z,41.23
2018-10-09T03:32:22.712Z,40.47
2018-10-09T03:34:50.248Z,41.03
2018-10-09T03:37:17.771Z,39.77
2018-10-09T03:39:45.307Z,38.30
2018-10-09T03:42:12.872Z,39.47
2018-10-09T03:44:40.479Z,40.87
2018-10-09T03:47:08.252Z,39.77
2018-10-09T03:49:35.947Z,39.53
2018-10-09T03:52:03.491Z,41.93
2018-10-09T03:54:31.094Z,38.80
2018-10-09T03:56:58.658Z,36.80
2018-10-09T03:59:26.207Z,39.97
2018-10-09T04:01:53.801Z,38.73
2018-10-09T04:04:21.402Z,39.50
2018-10-09T04:06:48.976Z,37.77
2018-10-09T04:09:16.538Z,41.30
2018-10-09T04:11:44.081Z,38.73
2018-10-09T04:14:11.680Z,40.70
2018-10-09T04:16:39.347Z,40.23
2018-10-09T04:19:06.928Z,42.10
2018-10-09T04:21:34.514Z,39.30
2018-10-09T04:24:02.069Z,42.70
2018-10-09T04:26:29.634Z,43.97
2018-10-09T04:28:57.154Z,42.87
2018-10-09T04:31:24.779Z,41.60
2018-10-09T04:33:52.303Z,40.73
2018-10-09T04:36:19.852Z,42.70
2018-10-09T04:38:47.407Z,41.30
2018-10-09T04:41:14.932Z,33.17
2018-10-09T04:43:42.477Z,31.00
2018-10-09T04:46:10.038Z,34.60
2018-10-09T04:48:37.588Z,32.23
2018-10-09T04:51:05.161Z,35.20
2018-10-09T04:53:32.788Z,40.53
2018-10-09T04:56:00.333Z,37.20
2018-10-09T04:58:27.845Z,34.30
2018-10-09T05:00:55.444Z,38.67
2018-10-09T05:03:23.045Z,38.17
2018-10-09T05:05:50.705Z,41.97
2018-10-09T05:08:18.263Z,40.97
2018-10-09T05:10:45.817Z,40.60
2018-10-09T05:13:13.427Z,42.30
2018-10-09T05:15:40.959Z,44.77
2018-10-09T05:18:08.489Z,40.57
2018-10-09T05:20:36.071Z,36.67
2018-10-09T05:23:03.782Z,40.30
2018-10-09T05:25:31.430Z,32.30
2018-10-09T05:27:59.052Z,33.53
2018-10-09T05:30:26.637Z,40.57
2018-10-09T05:32:54.198Z,50.67
2018-10-09T05:35:21.835Z,50.20
2018-10-09T05:37:49.583Z,41.37
2018-10-09T05:40:17.261Z,45.33
2018-10-09T05:42:44.971Z,42.60
2018-10-09T05:45:12.553Z,45.20
2018-10-09T05:47:40.056Z,44.77
2018-10-09T05:50:09.073Z,41.97
2018-10-09T05:52:37.087Z,46.90
2018-10-09T05:55:04.767Z,45.50
2018-10-09T05:57:32.558Z,42.47
2018-10-09T06:00:00.187Z,43.67
2018-10-09T06:02:27.812Z,31.00
2018-10-09T06:04:55.428Z,30.47
2018-10-09T06:07:23.402Z,33.00
2018-10-09T06:09:50.993Z,35.60
2018-10-09T06:12:18.598Z,35.97
2018-10-09T06:14:46.191Z,38.67
2018-10-09T06:17:13.803Z,39.77
2018-10-09T06:19:41.384Z,36.90
2018-10-09T06:22:08.962Z,40.40
2018-10-09T06:24:36.542Z,37.70
2018-10-09T06:27:04.204Z,40.57
2018-10-09T06:29:31.806Z,41.13
2018-10-09T06:31:59.344Z,37.93
2018-10-09T06:34:26.953Z,41.20
2018-10-09T06:36:54.569Z,39.83
2018-10-09T06:39:22.205Z,39.97
2018-10-09T06:41:49.746Z,40.47
2018-10-09T06:44:17.297Z,44.67
2018-10-09T06:46:44.830Z,42.27
2018-10-09T06:49:12.368Z,43.10
2018-10-09T06:51:39.922Z,40.33
2018-10-09T06:54:07.628Z,41.57
2018-10-09T06:56:35.026Z,42.30
2018-10-09T06:59:02.546Z,44.10
2018-10-09T07:01:30.126Z,41.10
2018-10-09T07:03:57.843Z,44.00
2018-10-09T07:06:25.453Z,43.80
2018-10-09T07:08:52.971Z,46.10
2018-10-09T07:11:20.591Z,44.23
2018-10-09T07:13:48.076Z,44.10
2018-10-09T07:16:15.640Z,46.33
2018-10-09T07:18:43.216Z,41.90
2018-10-09T07:21:10.730Z,44.60
2018-10-09T07:23:38.297Z,43.50
2018-10-09T07:26:05.935Z,42.93
2018-10-09T07:28:33.511Z,44.20
2018-10-09T07:31:01.028Z,44.50
2018-10-09T07:33:28.596Z,45.43
2018-10-09T07:35:56.190Z,45.33
2018-10-09T07:38:23.945Z,42.83
2018-10-09T07:40:51.543Z,44.80
2018-10-09T07:43:19.107Z,42.97
2018-10-09T07:45:46.618Z,46.20
2018-10-09T07:48:14.177Z,44.80
2018-10-09T07:50:41.706Z,45.10
2018-10-09T07:53:09.229Z,47.73
2018-10-09T07:55:36.800Z,48.57
2018-10-09T07:58:04.385Z,45.70
2018-10-09T08:00:31.950Z,45.30
2018-10-09T08:02:59.529Z,45.03
2018-10-09T08:05:27.108Z,45.47
2018-10-09T08:07:54.697Z,45.47
2018-10-09T08:10:22.319Z,44.50
2018-10-09T08:12:49.851Z,45.07
2018-10-09T08:15:17.429Z,41.27
2018-10-09T08:17:44.961Z,40.93
2018-10-09T08:20:12.479Z,40.83
2018-10-09T08:22:40.129Z,41.53
2018-10-09T08:25:07.600Z,41.57
2018-10-09T08:27:35.176Z,36.97
2018-10-09T08:30:02.741Z,43.80
2018-10-09T08:32:30.305Z,44.73
2018-10-09T08:34:57.889Z,46.40
2018-10-09T08:37:25.444Z,41.90
2018-10-09T08:39:53.011Z,43.27
2018-10-09T08:42:20.555Z,45.07
2018-10-09T08:44:48.121Z,45.57
2018-10-09T08:47:15.687Z,46.40
2018-10-09T08:49:43.206Z,46.73
2018-10-09T08:52:10.785Z,47.67
2018-10-09T08:54:38.359Z,49.03
2018-10-09T08:57:05.997Z,47.00
2018-10-09T08:59:33.606Z,47.90
2018-10-09T09:02:01.165Z,47.13
2018-10-09T09:04:28.759Z,46.93
2018-10-09T09:06:56.362Z,45.47
2018-10-09T09:09:23.920Z,45.37
2018-10-09T09:11:51.540Z,43.07
2018-10-09T09:14:19.066Z,43.73
2018-10-09T09:16:46.603Z,43.63
2018-10-09T09:19:14.155Z,43.17
2018-10-09T09:21:41.726Z,42.60
2018-10-09T09:24:09.283Z,43.47
2018-10-09T09:26:36.895Z,41.27
2018-10-09T09:29:04.505Z,45.50
2018-10-09T09:31:32.128Z,40.43
2018-10-09T09:33:59.659Z,37.50
2018-10-09T09:36:27.242Z,35.40
2018-10-09T09:38:54.759Z,36.27
2018-10-09T09:41:22.398Z,32.23
2018-10-09T09:43:49.946Z,31.83
2018-10-09T09:46:17.895Z,29.97
2018-10-09T09:48:45.381Z,29.67
2018-10-09T09:51:12.945Z,29.33
2018-10-09T09:53:40.576Z,31.23
2018-10-09T09:56:08.146Z,29.00
2018-10-09T09:58:35.842Z,29.80
2018-10-09T10:01:07.237Z,29.70
2018-10-09T10:03:35.288Z,27.90
2018-10-09T10:06:02.802Z,26.93
2018-10-09T10:08:30.340Z,29.33
2018-10-09T10:10:57.934Z,26.63
2018-10-09T10:13:25.516Z,22.70
2018-10-09T10:15:53.122Z,27.97
2018-10-09T10:18:20.734Z,29.30
2018-10-09T10:20:48.324Z,28.60
2018-10-09T10:23:15.908Z,25.77
2018-10-09T10:25:43.441Z,25.17
2018-10-09T10:28:11.008Z,26.40
2018-10-09T10:30:38.578Z,26.43
2018-10-09T10:33:06.172Z,25.80
2018-10-09T10:35:33.753Z,24.53
2018-10-09T10:38:01.391Z,26.83
2018-10-09T10:40:28.966Z,22.70
2018-10-09T10:42:56.508Z,23.80
2018-10-09T10:45:24.036Z,23.70
2018-10-09T10:47:51.624Z,21.90
2018-10-09T10:50:19.243Z,22.43
2018-10-09T10:52:46.792Z,23.03
2018-10-09T10:55:14.413Z,20.40
2018-10-09T10:57:42.005Z,23.23
2018-10-09T11:00:09.566Z,22.20
2018-10-09T11:02:37.143Z,25.87
2018-10-09T11:05:04.846Z,25.27
2018-10-09T11:07:32.550Z,24.00
2018-10-09T11:10:00.233Z,25.17
2018-10-09T11:12:27.797Z,24.57
2018-10-09T11:14:55.310Z,25.43
2018-10-09T11:17:22.887Z,26.60
2018-10-09T11:19:50.489Z,25.50
2018-10-09T11:22:17.990Z,26.13
2018-10-09T11:24:45.546Z,24.60
2018-10-09T11:27:13.063Z,24.60
2018-10-09T11:29:40.634Z,24.53
2018-10-09T11:32:08.190Z,23.40
2018-10-09T11:34:36.026Z,24.33
2018-10-09T11:37:03.641Z,24.50
2018-10-09T11:39:31.152Z,24.10
2018-10-09T11:41:58.692Z,22.57
2018-10-09T11:44:26.259Z,24.50
2018-10-09T11:46:53.845Z,24.70
2018-10-09T11:49:24.312Z,23.83
2018-10-09T11:51:51.945Z,21.17
2018-10-09T11:54:19.445Z,23.80
2018-10-09T11:56:47.002Z,21.50
2018-10-09T11:59:14.535Z,22.63
2018-10-09T12:01:42.156Z,24.73
2018-10-09T12:04:09.721Z,23.00
2018-10-09T12:06:37.302Z,21.70
2018-10-09T12:09:07.884Z,22.33
2018-10-09T12:11:35.446Z,23.10
2018-10-09T12:14:03.038Z,22.50
2018-10-09T12:16:30.613Z,22.20
2018-10-09T12:18:58.230Z,21.97
2018-10-09T12:21:25.809Z,21.07
2018-10-09T12:23:53.406Z,22.60
2018-10-09T12:26:20.950Z,21.37
2018-10-09T12:28:48.543Z,21.67
2018-10-09T12:31:16.100Z,23.93
2018-10-09T12:33:43.687Z,21.97
2018-10-09T12:36:11.274Z,23.37
2018-10-09T12:38:38.840Z,22.57
2018-10-09T12:41:06.418Z,21.60
2018-10-09T12:43:33.968Z,21.30
2018-10-09T12:46:01.498Z,21.20
2018-10-09T12:48:29.079Z,21.63
2018-10-09T12:50:56.640Z,21.83
2018-10-09T12:53:24.272Z,20.87
2018-10-09T12:55:51.864Z,20.37
2018-10-09T12:58:20.307Z,21.00
2018-10-09T13:00:47.875Z,23.13
2018-10-09T13:03:15.477Z,21.60
2018-10-09T13:05:43.011Z,22.20
2018-10-09T13:08:10.603Z,20.80
2018-10-09T13:10:38.157Z,21.67
2018-10-09T13:13:06.967Z,21.60
2018-10-09T13:15:34.485Z,20.80
2018-10-09T13:18:02.051Z,24.00
2018-10-09T13:20:29.629Z,21.50
2018-10-09T13:22:57.217Z,20.03
2018-10-09T13:25:24.866Z,20.03
2018-10-09T13:27:52.452Z,19.93
2018-10-09T13:30:20.025Z,20.17
2018-10-09T13:32:47.564Z,20.27
2018-10-09T13:35:15.137Z,21.17
2018-10-09T13:37:42.691Z,19.40
2018-10-09T13:40:10.269Z,21.13
2018-10-09T13:42:37.817Z,19.00
2018-10-09T13:45:05.568Z,19.10
2018-10-09T13:47:33.169Z,20.60
2018-10-09T13:50:00.729Z,19.60
2018-10-09T13:52:28.332Z,17.00
2018-10-09T13:54:55.909Z,18.00
2018-10-09T13:57:23.537Z,18.90
2018-10-09T13:59:51.088Z,19.10
2018-10-09T14:02:18.880Z,18.80
2018-10-09T14:04:46.504Z,20.07
2018-10-09T14:07:14.090Z,18.87
2018-10-09T14:09:41.638Z,20.57
2018-10-09T14:12:09.244Z,19.23
2018-10-09T14:14:37.055Z,21.10
2018-10-09T14:17:04.678Z,20.63
2018-10-09T14:19:32.274Z,19.67
2018-10-09T14:21:59.851Z,19.57
2018-10-09T14:24:27.430Z,19.00
2018-10-09T14:26:55.002Z,19.10
2018-10-09T14:29:22.550Z,19.40
2018-10-09T14:31:50.194Z,19.47
2018-10-09T14:34:17.733Z,20.13
2018-10-09T14:36:45.320Z,19.83
2018-10-09T14:39:12.916Z,20.20
2018-10-09T14:41:40.442Z,17.10
2018-10-09T14:44:08.060Z,18.93
2018-10-09T14:46:35.610Z,19.77
2018-10-09T14:49:03.165Z,17.93
2018-10-09T14:51:30.767Z,18.40
2018-10-09T14:53:58.290Z,18.90
2018-10-09T14:56:25.988Z,20.40
2018-10-09T14:58:53.613Z,21.43
2018-10-09T15:01:21.173Z,19.70
2018-10-09T15:03:48.693Z,20.07
2018-10-09T15:06:16.294Z,21.70
2018-10-09T15:08:43.865Z,20.50
2018-10-09T15:11:11.380Z,20.70
2018-10-09T15:13:38.965Z,18.50
2018-10-09T15:16:06.595Z,19.10
2018-10-09T15:18:34.183Z,21.47
2018-10-09T15:21:01.776Z,22.93
2018-10-09T15:23:29.341Z,19.80
2018-10-09T15:25:56.874Z,20.77
2018-10-09T15:28:24.481Z,18.90
2018-10-09T15:30:52.060Z,23.03
2018-10-09T15:33:19.655Z,21.50
2018-10-09T15:35:47.213Z,22.10
2018-10-09T15:38:14.813Z,21.83
2018-10-09T15:40:42.711Z,21.00
2018-10-09T15:43:10.321Z,21.87
2018-10-09T15:45:37.889Z,22.17
2018-10-09T15:48:05.481Z,21.37
2018-10-09T15:50:33.037Z,21.90
2018-10-09T15:53:00.614Z,21.77
2018-10-09T15:55:28.223Z,21.27
2018-10-09T15:57:55.826Z,21.20
2018-10-09T16:00:23.512Z,23.10
2018-10-09T16:02:51.403Z,23.07
2018-10-09T16:05:18.995Z,20.07
2018-10-09T16:07:46.597Z,22.23
2018-10-09T16:10:14.197Z,20.00
2018-10-09T16:12:41.757Z,22.30
2018-10-09T16:15:09.408Z,22.07
2018-10-09T16:17:37.155Z,23.17
2018-10-09T16:20:05.317Z,20.60
2018-10-09T16:22:33.001Z,21.27
2018-10-09T16:25:00.629Z,19.97
2018-10-09T16:27:28.150Z,20.03
2018-10-09T16:29:55.704Z,23.67
2018-10-09T16:32:23.297Z,22.37
2018-10-09T16:34:50.855Z,19.27
2018-10-09T16:37:18.439Z,21.70
2018-10-09T16:39:46.058Z,21.73
2018-10-09T16:42:13.705Z,20.40
2018-10-09T16:44:41.274Z,22.17
2018-10-09T16:47:08.844Z,22.50
2018-10-09T16:49:37.444Z,22.00
2018-10-09T16:52:05.037Z,21.07
2018-10-09T16:54:32.677Z,21.40
2018-10-09T16:57:00.222Z,22.20
2018-10-09T16:59:28.727Z,22.07
2018-10-09T17:01:56.266Z,20.30
2018-10-09T17:04:23.885Z,22.90
2018-10-09T17:06:51.557Z,22.67
2018-10-09T17:09:19.234Z,23.60
2018-10-09T17:11:46.876Z,21.63
2018-10-09T17:14:14.484Z,20.30
2018-10-09T17:16:42.095Z,20.00
2018-10-09T17:19:09.794Z,22.43
2018-10-09T17:21:37.426Z,20.50
2018-10-09T17:24:05.096Z,18.40
2018-10-09T17:26:32.764Z,20.30
2018-10-09T17:29:00.385Z,19.73
2018-10-09T17:31:28.122Z,22.07
2018-10-09T17:33:55.798Z,19.27
2018-10-09T17:36:23.500Z,19.70
2018-10-09T17:38:51.241Z,21.00
2018-10-09T17:41:19.843Z,21.90
2018-10-09T17:43:47.515Z,19.67
2018-10-09T17:46:15.275Z,19.87
2018-10-09T17:48:42.994Z,21.03
2018-10-09T17:51:10.608Z,20.73
2018-10-09T17:53:38.344Z,19.37
2018-10-09T17:56:06.092Z,19.60
2018-10-09T17:58:33.948Z,19.87
2018-10-09T18:01:01.640Z,18.63
2018-10-09T18:03:38.980Z,18.80
2018-10-09T18:06:06.756Z,23.37
2018-10-09T18:08:34.596Z,20.37
2018-10-09T18:11:02.358Z,20.07
2018-10-09T18:13:30.876Z,24.10
2018-10-09T18:15:58.698Z,18.20
2018-10-09T18:18:26.382Z,20.53
2018-10-09T18:20:54.165Z,17.23
2018-10-09T18:23:21.821Z,19.97
2018-10-09T18:25:49.548Z,19.70
2018-10-09T18:28:17.252Z,19.90
2018-10-09T18:30:45.024Z,18.90
2018-10-09T18:33:13.280Z,19.93
2018-10-09T18:35:41.369Z,20.20
2018-10-09T18:38:09.100Z,20.47
2018-10-09T18:40:36.872Z,22.17
2018-10-09T18:43:04.516Z,21.30
2018-10-09T18:45:33.107Z,20.67
2018-10-09T18:48:00.982Z,20.00
2018-10-09T18:50:28.765Z,20.20
2018-10-09T18:52:56.487Z,21.93
2018-10-09T18:55:24.244Z,20.47
2018-10-09T18:57:52.590Z,22.67
2018-10-09T19:00:20.744Z,20.27
2018-10-09T19:02:48.701Z,21.57
2018-10-09T19:05:16.491Z,20.63
2018-10-09T19:07:44.198Z,20.27
2018-10-09T19:10:12.059Z,17.60
2018-10-09T19:12:39.787Z,20.33
2018-10-09T19:15:07.783Z,19.77
2018-10-09T19:17:35.520Z,17.93
2018-10-09T19:20:03.368Z,20.03
2018-10-09T19:22:31.086Z,19.50
2018-10-09T19:24:58.866Z,20.17
2018-10-09T19:27:26.631Z,20.37
2018-10-09T19:29:54.317Z,20.27
2018-10-09T19:32:22.085Z,19.57
2018-10-09T19:34:49.842Z,19.07
2018-10-09T19:37:17.582Z,19.27
2018-10-09T19:39:45.370Z,17.80
2018-10-09T19:42:13.031Z,19.00
2018-10-09T19:44:40.704Z,19.77
2018-10-09T19:47:08.427Z,19.97
2018-10-09T19:49:36.762Z,22.43
2018-10-09T19:52:04.684Z,20.40
2018-10-09T19:54:32.945Z,21.50
2018-10-09T19:57:01.067Z,21.37
2018-10-09T19:59:28.818Z,23.23
2018-10-09T20:01:56.545Z,23.83
2018-10-09T20:04:24.233Z,24.00
2018-10-09T20:06:51.920Z,22.90
2018-10-09T20:09:19.593Z,21.77
2018-10-09T20:11:47.311Z,23.33
2018-10-09T20:14:15.265Z,22.40
2018-10-09T20:16:43.027Z,23.70
2018-10-09T20:19:17.275Z,18.90
2018-10-09T20:21:44.943Z,17.30
2018-10-09T20:24:12.581Z,19.57
2018-10-09T20:26:40.851Z,19.33
2018-10-09T20:29:08.508Z,18.07
2018-10-09T20:31:36.167Z,17.07
2018-10-09T20:34:03.822Z,17.30
2018-10-09T20:36:31.514Z,19.70
2018-10-09T20:38:59.268Z,18.60
2018-10-09T20:41:27.541Z,19.67
2018-10-09T20:43:55.155Z,20.40
2018-10-09T20:46:22.793Z,19.40
2018-10-09T20:48:50.416Z,19.40
2018-10-09T20:51:18.044Z,19.53
2018-10-09T20:53:45.991Z,20.50
2018-10-09T20:56:13.608Z,19.47
2018-10-09T20:58:41.222Z,21.57
2018-10-09T21:01:08.951Z,21.10
2018-10-09T21:03:36.529Z,19.70
2018-10-09T21:06:04.251Z,18.77
2018-10-09T21:08:31.889Z,28.07
2018-10-09T21:10:59.571Z,33.23
2018-10-09T21:13:27.161Z,36.80
2018-10-09T21:15:54.737Z,43.00
2018-10-09T21:18:22.291Z,36.63
2018-10-09T21:20:49.861Z,25.47
2018-10-09T21:23:17.409Z,23.50
2018-10-09T21:25:44.999Z,21.97
2018-10-09T21:28:12.595Z,20.27
2018-10-09T21:30:40.175Z,23.47
2018-10-09T21:33:07.707Z,23.10
2018-10-09T21:35:35.299Z,23.87
2018-10-09T21:38:02.914Z,26.93
2018-10-09T21:40:30.560Z,26.43
2018-10-09T21:42:58.143Z,25.50
2018-10-09T21:45:25.754Z,26.00
2018-10-09T21:48:00.542Z,26.20
2018-10-09T21:50:28.270Z,28.67
2018-10-09T21:52:56.104Z,27.93
2018-10-09T21:55:23.888Z,29.60
2018-10-09T21:57:51.456Z,28.60
2018-10-09T22:00:18.974Z,28.00
2018-10-09T22:02:46.542Z,26.20
2018-10-09T22:05:14.078Z,26.77
2018-10-09T22:07:41.640Z,30.93
2018-10-09T22:10:09.176Z,28.60
2018-10-09T22:12:36.741Z,32.17
2018-10-09T22:15:04.627Z,31.50
2018-10-09T22:17:32.285Z,29.17
2018-10-09T22:19:59.998Z,25.30
2018-10-09T22:22:27.616Z,25.33
2018-10-09T22:24:55.323Z,26.37
2018-10-09T22:27:22.953Z,26.77
2018-10-09T22:29:51.713Z,28.77
2018-10-09T22:32:19.301Z,31.43
2018-10-09T22:34:47.269Z,28.97
2018-10-09T22:37:14.841Z,27.77
2018-10-09T22:39:42.369Z,27.63
2018-10-09T22:42:09.959Z,27.50
2018-10-09T22:44:37.517Z,28.27
2018-10-09T22:47:05.277Z,28.67
2018-10-09T22:49:32.875Z,26.63
2018-10-09T22:52:00.569Z,27.37
2018-10-09T22:54:28.214Z,27.70
2018-10-09T22:56:55.930Z,27.27
2018-10-09T22:59:23.836Z,28.43
2018-10-09T23:01:51.380Z,31.10
2018-10-09T23:04:18.923Z,25.57
2018-10-09T23:06:46.540Z,30.03
2018-10-09T23:09:14.098Z,28.93
2018-10-09T23:11:41.637Z,27.67
2018-10-09T23:14:09.202Z,29.27
2018-10-09T23:16:37.007Z,29.97
2018-10-09T23:19:04.871Z,31.93
2018-10-09T23:21:32.396Z,35.97
2018-10-09T23:24:00.023Z,30.70
2018-10-09T23:26:27.576Z,31.10
2018-10-09T23:28:55.211Z,31.27
2018-10-09T23:31:22.686Z,31.30
2018-10-09T23:33:50.236Z,31.33
2018-10-09T23:36:17.762Z,28.37
2018-10-09T23:38:45.348Z,32.10
2018-10-09T23:41:12.909Z,28.37
2018-10-09T23:43:40.427Z,31.97
2018-10-09T23:46:08.082Z,29.00
2018-10-09T23:48:35.610Z,29.13
2018-10-09T23:51:03.178Z,28.63
2018-10-09T23:53:30.755Z,31.40
2018-10-09T23:55:58.432Z,30.97
2018-10-09T23:58:26.040Z,29.77
